createdAt,value
2023-04-24T00:01:46.389Z,99.90
2023-04-24T00:04:17.874Z,99.90
2023-04-24T00:06:50.553Z,99.90
2023-04-24T00:09:19.455Z,99.90
2023-04-24T00:11:48.803Z,99.90
2023-04-24T00:14:20.928Z,99.90
2023-04-24T00:16:49.723Z,99.90
2023-04-24T00:19:22.208Z,99.90
2023-04-24T00:21:51.769Z,99.90
2023-04-24T00:24:20.815Z,99.90
2023-04-24T00:26:49.826Z,99.90
2023-04-24T00:29:20.001Z,99.90
2023-04-24T00:31:48.990Z,99.90
2023-04-24T00:34:18.062Z,99.90
2023-04-24T00:36:47.183Z,99.90
2023-04-24T00:39:16.576Z,99.90
2023-04-24T00:41:46.557Z,99.90
2023-04-24T00:44:15.474Z,99.90
2023-04-24T00:46:45.939Z,99.90
2023-04-24T00:49:15.808Z,99.90
2023-04-24T00:51:46.667Z,99.90
2023-04-24T00:54:17.070Z,99.90
2023-04-24T00:56:46.813Z,99.90
2023-04-24T00:59:19.115Z,99.90
2023-04-24T01:01:50.061Z,99.90
2023-04-24T01:04:20.217Z,99.90
2023-04-24T01:06:53.459Z,99.90
2023-04-24T01:09:24.021Z,99.90
2023-04-24T01:11:53.750Z,99.90
2023-04-24T01:14:23.375Z,99.90
2023-04-24T01:16:53.627Z,99.90
2023-04-24T01:19:23.347Z,99.90
2023-04-24T01:21:56.340Z,99.90
2023-04-24T01:24:27.587Z,99.90
2023-04-24T01:26:57.442Z,99.90
2023-04-24T01:29:26.565Z,99.90
2023-04-24T01:31:56.018Z,99.90
2023-04-24T01:34:25.385Z,99.90
2023-04-24T01:36:54.822Z,99.90
2023-04-24T01:39:24.477Z,99.90
2023-04-24T01:41:55.259Z,99.90
2023-04-24T01:44:24.467Z,99.90
2023-04-24T01:46:55.358Z,99.90
2023-04-24T01:49:24.857Z,99.90
2023-04-24T01:51:53.904Z,99.90
2023-04-24T01:54:23.388Z,99.90
2023-04-24T01:56:52.744Z,99.90
2023-04-24T01:59:24.444Z,99.90
2023-04-24T02:01:53.216Z,99.90
2023-04-24T02:04:22.455Z,99.90
2023-04-24T02:06:53.070Z,99.90
2023-04-24T02:09:22.820Z,99.90
2023-04-24T02:11:53.067Z,99.90
2023-04-24T02:14:24.203Z,99.90
2023-04-24T02:16:54.686Z,99.90
2023-04-24T02:19:24.353Z,99.90
2023-04-24T02:21:53.938Z,99.90
2023-04-24T02:24:22.832Z,99.90
2023-04-24T02:26:51.779Z,99.90
2023-04-24T02:29:22.309Z,99.90
2023-04-24T02:31:55.431Z,99.90
2023-04-24T02:34:24.861Z,99.90
2023-04-24T02:36:55.402Z,99.90
2023-04-24T02:39:24.717Z,99.90
2023-04-24T02:41:55.234Z,99.90
2023-04-24T02:44:26.331Z,99.90
2023-04-24T02:46:55.163Z,99.90
2023-04-24T02:49:25.657Z,99.90
2023-04-24T02:51:54.743Z,99.90
2023-04-24T02:54:23.853Z,99.90
2023-04-24T02:56:53.740Z,99.90
2023-04-24T02:59:23.348Z,99.90
2023-04-24T03:01:54.172Z,99.90
2023-04-24T03:04:24.136Z,99.90
2023-04-24T03:06:53.959Z,99.90
2023-04-24T03:09:24.201Z,99.90
2023-04-24T03:11:53.953Z,99.90
2023-04-24T03:14:23.038Z,99.90
2023-04-24T03:16:53.323Z,99.90
2023-04-24T03:19:22.142Z,99.90
2023-04-24T03:22:06.552Z,99.90
2023-04-24T03:24:37.279Z,99.90
2023-04-24T03:27:07.612Z,99.90
2023-04-24T03:29:56.728Z,99.90
2023-04-24T03:32:40.411Z,99.90
2023-04-24T03:35:12.325Z,99.90
2023-04-24T03:37:42.508Z,99.90
2023-04-24T03:40:32.038Z,99.90
2023-04-24T03:43:01.641Z,99.90
2023-04-24T03:45:30.866Z,99.90
2023-04-24T03:48:01.669Z,99.90
2023-04-24T03:50:31.758Z,99.90
2023-04-24T03:53:01.668Z,99.90
2023-04-24T03:55:40.919Z,99.90
2023-04-24T03:58:09.736Z,99.90
2023-04-24T04:00:41.846Z,99.90
2023-04-24T04:03:32.396Z,99.90
2023-04-24T04:06:03.620Z,99.90
2023-04-24T04:08:32.701Z,99.90
2023-04-24T04:11:03.395Z,99.90
2023-04-24T04:13:33.600Z,99.90
2023-04-24T04:16:03.171Z,99.90
2023-04-24T04:18:34.744Z,99.90
2023-04-24T04:21:04.792Z,99.90
2023-04-24T04:23:34.116Z,99.90
2023-04-24T04:26:18.136Z,99.90
2023-04-24T04:29:04.709Z,99.90
2023-04-24T04:31:35.952Z,99.90
2023-04-24T04:34:10.891Z,99.90
2023-04-24T04:36:41.285Z,99.90
2023-04-24T04:39:38.077Z,99.90
2023-04-24T04:42:10.680Z,99.90
2023-04-24T04:44:43.947Z,99.90
2023-04-24T04:47:18.415Z,99.90
2023-04-24T04:49:50.287Z,99.90
2023-04-24T04:52:26.506Z,99.90
2023-04-24T04:55:03.434Z,99.90
2023-04-24T04:57:53.312Z,99.90
2023-04-24T05:00:22.740Z,99.90
2023-04-24T05:02:55.369Z,99.90
2023-04-24T05:05:27.251Z,99.90
2023-04-24T05:07:57.541Z,99.90
2023-04-24T05:10:26.941Z,99.90
2023-04-24T05:12:57.533Z,99.90
2023-04-24T05:15:26.949Z,99.90
2023-04-24T05:17:58.007Z,99.90
2023-04-24T05:20:29.099Z,99.90
2023-04-24T05:22:58.212Z,99.90
2023-04-24T05:25:28.523Z,99.90
2023-04-24T05:28:06.947Z,99.90
2023-04-24T05:30:37.404Z,99.90
2023-04-24T05:33:07.337Z,99.90
2023-04-24T05:35:39.105Z,99.90
2023-04-24T05:38:08.188Z,99.90
2023-04-24T05:40:38.179Z,99.90
2023-04-24T05:43:06.928Z,99.90
2023-04-24T05:45:37.477Z,99.90
2023-04-24T05:48:07.369Z,99.90
2023-04-24T05:50:38.108Z,99.90
2023-04-24T05:53:08.856Z,99.90
2023-04-24T05:55:40.296Z,99.90
2023-04-24T05:58:09.803Z,99.90
2023-04-24T06:00:40.919Z,99.90
2023-04-24T06:03:11.309Z,99.90
2023-04-24T06:05:41.875Z,99.90
2023-04-24T06:08:12.271Z,99.90
2023-04-24T06:10:42.514Z,99.90
2023-04-24T06:13:13.731Z,99.90
2023-04-24T06:15:49.716Z,99.90
2023-04-24T06:18:23.691Z,99.90
2023-04-24T06:20:54.037Z,99.90
2023-04-24T06:23:22.954Z,99.90
2023-04-24T06:25:52.230Z,99.90
2023-04-24T06:28:21.200Z,99.90
2023-04-24T06:30:50.082Z,99.90
2023-04-24T06:33:21.639Z,99.90
2023-04-24T06:35:53.090Z,99.90
2023-04-24T06:38:22.189Z,99.90
2023-04-24T06:40:51.543Z,99.90
2023-04-24T06:43:20.830Z,99.90
2023-04-24T06:45:49.621Z,99.90
2023-04-24T06:48:18.709Z,99.90
2023-04-24T06:50:48.125Z,99.90
2023-04-24T06:53:18.490Z,99.90
2023-04-24T06:55:47.291Z,99.90
2023-04-24T06:58:17.060Z,99.90
2023-04-24T07:00:46.952Z,99.90
2023-04-24T07:03:16.017Z,99.90
2023-04-24T07:05:45.362Z,99.90
2023-04-24T07:08:14.734Z,99.90
2023-04-24T07:10:44.984Z,99.90
2023-04-24T07:13:13.894Z,99.90
2023-04-24T07:15:42.752Z,99.90
2023-04-24T07:18:11.940Z,99.90
2023-04-24T07:20:40.961Z,99.90
2023-04-24T07:23:10.394Z,99.90
2023-04-24T07:25:40.685Z,99.90
2023-04-24T07:28:10.921Z,99.90
2023-04-24T07:30:40.095Z,99.90
2023-04-24T07:33:09.257Z,99.90
2023-04-24T07:35:38.254Z,99.90
2023-04-24T07:38:07.181Z,99.90
2023-04-24T07:40:36.444Z,99.90
2023-04-24T07:43:05.247Z,99.90
2023-04-24T07:45:38.229Z,99.90
2023-04-24T07:48:07.279Z,99.90
2023-04-24T07:50:36.977Z,99.90
2023-04-24T07:53:06.117Z,99.90
2023-04-24T07:55:35.003Z,99.90
2023-04-24T07:58:03.808Z,99.90
2023-04-24T08:00:33.951Z,99.90
2023-04-24T08:03:03.425Z,99.90
2023-04-24T08:05:32.536Z,99.90
2023-04-24T08:08:01.648Z,99.90
2023-04-24T08:10:30.580Z,99.90
2023-04-24T08:12:59.657Z,99.90
2023-04-24T08:15:30.263Z,99.90
2023-04-24T08:19:02.361Z,99.90
2023-04-24T08:21:31.355Z,99.90
2023-04-24T08:24:00.182Z,99.90
2023-04-24T08:26:29.349Z,99.90
2023-04-24T08:28:58.745Z,99.90
2023-04-24T08:31:28.257Z,99.90
2023-04-24T08:33:58.304Z,99.90
2023-04-24T08:36:43.563Z,99.90
2023-04-24T08:39:16.873Z,99.90
2023-04-24T08:41:46.650Z,99.90
2023-04-24T08:44:17.378Z,99.90
2023-04-24T08:46:48.810Z,99.90
2023-04-24T08:49:18.445Z,99.90
2023-04-24T08:51:49.427Z,99.90
2023-04-24T08:54:19.094Z,99.90
2023-04-24T08:56:50.933Z,99.90
2023-04-24T08:59:20.887Z,99.90
2023-04-24T09:01:52.160Z,99.90
2023-04-24T09:04:26.083Z,99.90
2023-04-24T09:06:59.891Z,99.90
2023-04-24T09:09:32.320Z,99.90
2023-04-24T09:12:01.299Z,99.90
2023-04-24T09:14:33.162Z,99.90
2023-04-24T09:17:02.459Z,99.90
2023-04-24T09:19:31.918Z,99.90
2023-04-24T09:22:06.976Z,99.90
2023-04-24T09:24:36.736Z,99.90
2023-04-24T09:27:06.639Z,99.90
2023-04-24T09:29:35.788Z,99.90
2023-04-24T09:32:22.941Z,99.90
2023-04-24T09:34:52.398Z,99.90
2023-04-24T09:37:31.813Z,99.90
2023-04-24T09:40:14.249Z,99.90
2023-04-24T09:42:47.408Z,99.90
2023-04-24T09:45:16.428Z,99.90
2023-04-24T09:47:45.716Z,99.90
2023-04-24T09:50:18.211Z,99.90
2023-04-24T09:53:01.093Z,99.90
2023-04-24T09:55:29.980Z,99.90
2023-04-24T09:58:01.311Z,99.90
2023-04-24T10:00:32.318Z,99.90
2023-04-24T10:03:02.679Z,99.90
2023-04-24T10:05:33.468Z,99.90
2023-04-24T10:08:08.449Z,99.90
2023-04-24T10:10:40.600Z,99.90
2023-04-24T10:13:11.395Z,99.90
2023-04-24T10:15:41.739Z,99.90
2023-04-24T10:18:12.485Z,99.90
2023-04-24T10:20:42.763Z,99.90
2023-04-24T10:23:14.159Z,99.90
2023-04-24T10:25:43.281Z,99.90
2023-04-24T10:28:12.919Z,99.90
2023-04-24T10:30:45.705Z,99.90
2023-04-24T10:33:15.010Z,99.90
2023-04-24T10:35:49.028Z,99.90
2023-04-24T10:38:25.652Z,99.90
2023-04-24T10:41:09.441Z,99.90
2023-04-24T10:43:42.397Z,99.90
2023-04-24T10:46:12.449Z,99.90
2023-04-24T10:48:47.016Z,99.90
2023-04-24T10:51:17.236Z,99.90
2023-04-24T10:53:48.070Z,99.90
2023-04-24T10:56:20.356Z,99.90
2023-04-24T10:58:54.773Z,99.90
2023-04-24T11:01:28.445Z,99.90
2023-04-24T11:04:00.011Z,99.90
2023-04-24T11:06:34.129Z,99.90
2023-04-24T11:09:12.805Z,99.90
2023-04-24T11:11:49.599Z,99.90
2023-04-24T11:14:19.747Z,99.90
2023-04-24T11:16:56.017Z,99.90
2023-04-24T11:19:27.707Z,99.90
2023-04-24T11:22:01.499Z,99.90
2023-04-24T11:24:35.267Z,99.90
2023-04-24T11:27:10.143Z,99.90
2023-04-24T11:29:44.829Z,99.90
2023-04-24T11:32:28.822Z,99.90
2023-04-24T11:34:59.204Z,99.90
2023-04-24T11:37:30.497Z,99.90
2023-04-24T11:40:02.377Z,99.90
2023-04-24T11:42:36.454Z,99.90
2023-04-24T11:45:11.004Z,99.90
2023-04-24T11:47:40.635Z,99.90
2023-04-24T11:50:11.564Z,99.90
2023-04-24T11:52:42.376Z,99.90
2023-04-24T11:55:27.304Z,99.90
2023-04-24T11:57:58.715Z,99.90
2023-04-24T12:00:29.935Z,99.90
2023-04-24T12:03:08.941Z,99.90
2023-04-24T12:05:39.603Z,99.90
2023-04-24T12:08:09.155Z,99.90
2023-04-24T12:10:39.765Z,99.90
2023-04-24T12:13:13.358Z,99.90
2023-04-24T12:15:43.051Z,99.90
2023-04-24T12:18:14.819Z,99.90
2023-04-24T12:20:44.156Z,99.90
2023-04-24T12:23:13.303Z,99.90
2023-04-24T12:25:43.717Z,99.90
2023-04-24T12:28:15.174Z,99.90
2023-04-24T12:30:46.446Z,99.90
2023-04-24T12:33:15.398Z,99.90
2023-04-24T12:35:44.820Z,99.90
2023-04-24T12:38:15.449Z,99.90
2023-04-24T12:40:46.630Z,99.90
2023-04-24T12:43:17.041Z,99.90
2023-04-24T12:45:46.461Z,99.90
2023-04-24T12:48:16.342Z,99.90
2023-04-24T12:50:47.309Z,99.90
2023-04-24T12:53:18.058Z,99.90
2023-04-24T12:55:53.928Z,99.90
2023-04-24T12:58:24.016Z,99.90
2023-04-24T13:00:53.453Z,99.90
2023-04-24T13:03:23.668Z,99.90
2023-04-24T13:05:53.032Z,99.90
2023-04-24T13:08:23.826Z,99.90
2023-04-24T13:10:54.978Z,99.90
2023-04-24T13:13:24.257Z,99.90
2023-04-24T13:15:53.177Z,99.90
2023-04-24T13:18:22.413Z,99.90
2023-04-24T13:20:51.937Z,99.90
2023-04-24T13:23:23.201Z,99.90
2023-04-24T13:25:56.396Z,99.90
2023-04-24T13:28:25.766Z,99.90
2023-04-24T13:30:54.922Z,99.90
2023-04-24T13:33:24.077Z,99.90
2023-04-24T13:35:53.302Z,99.90
2023-04-24T13:38:23.178Z,99.90
2023-04-24T13:40:53.721Z,99.90
2023-04-24T13:43:22.536Z,99.90
2023-04-24T13:45:52.447Z,99.90
2023-04-24T13:48:22.726Z,99.90
2023-04-24T13:50:51.752Z,99.90
2023-04-24T13:53:21.364Z,99.90
2023-04-24T13:55:51.055Z,99.90
2023-04-24T13:58:22.061Z,99.90
2023-04-24T14:00:51.789Z,99.90
2023-04-24T14:03:21.675Z,99.90
2023-04-24T14:05:51.783Z,99.90
2023-04-24T14:08:20.637Z,99.90
2023-04-24T14:10:51.191Z,99.90
2023-04-24T14:13:23.309Z,99.90
2023-04-24T14:15:52.371Z,99.90
2023-04-24T14:18:21.514Z,99.90
2023-04-24T14:20:51.331Z,99.90
2023-04-24T14:23:21.260Z,99.90
2023-04-24T14:25:52.723Z,99.90
2023-04-24T14:28:27.505Z,99.90
2023-04-24T14:30:56.679Z,99.90
2023-04-24T14:33:25.509Z,99.90
2023-04-24T14:35:54.354Z,99.90
2023-04-24T14:38:24.172Z,99.90
2023-04-24T14:41:06.168Z,99.90
2023-04-24T14:43:38.746Z,99.90
2023-04-24T14:46:07.790Z,99.90
2023-04-24T14:48:36.704Z,99.90
2023-04-24T14:51:05.837Z,99.90
2023-04-24T14:53:36.648Z,99.90
2023-04-24T14:56:06.047Z,99.90
2023-04-24T14:58:35.346Z,99.90
2023-04-24T15:01:06.824Z,99.90
2023-04-24T15:03:37.161Z,99.90
2023-04-24T15:06:06.711Z,99.90
2023-04-24T15:08:35.663Z,99.90
2023-04-24T15:11:05.110Z,99.90
2023-04-24T15:13:34.167Z,99.90
2023-04-24T15:16:03.431Z,99.90
2023-04-24T15:18:33.700Z,99.90
2023-04-24T15:21:02.957Z,99.90
2023-04-24T15:23:32.492Z,99.90
2023-04-24T15:26:02.255Z,99.90
2023-04-24T15:28:31.089Z,99.90
2023-04-24T15:30:59.976Z,99.90
2023-04-24T15:33:28.895Z,99.90
2023-04-24T15:35:59.797Z,99.90
2023-04-24T15:38:28.926Z,99.90
2023-04-24T15:40:57.942Z,99.90
2023-04-24T15:43:26.865Z,99.90
2023-04-24T15:45:56.957Z,99.90
2023-04-24T15:48:25.842Z,99.90
2023-04-24T15:50:57.142Z,99.90
2023-04-24T15:53:30.346Z,99.90
2023-04-24T15:55:59.292Z,99.90
2023-04-24T15:58:28.604Z,99.90
2023-04-24T16:00:57.678Z,99.90
2023-04-24T16:03:26.910Z,99.90
2023-04-24T16:05:56.106Z,99.90
2023-04-24T16:08:25.920Z,99.90
2023-04-24T16:10:56.060Z,99.90
2023-04-24T16:13:25.853Z,99.90
2023-04-24T16:15:54.734Z,99.90
2023-04-24T16:18:24.237Z,99.90
2023-04-24T16:20:54.446Z,99.90
2023-04-24T16:23:23.349Z,99.90
2023-04-24T16:25:52.271Z,99.90
2023-04-24T16:28:23.252Z,99.90
2023-04-24T16:30:52.539Z,99.90
2023-04-24T16:33:21.606Z,99.90
2023-04-24T16:35:50.566Z,99.90
2023-04-24T16:38:19.534Z,99.90
2023-04-24T16:40:48.500Z,99.90
2023-04-24T16:43:17.753Z,99.90
2023-04-24T16:45:48.166Z,99.90
2023-04-24T16:48:16.994Z,99.90
2023-04-24T16:50:46.152Z,99.90
2023-04-24T16:53:14.982Z,99.90
2023-04-24T16:55:45.332Z,99.90
2023-04-24T16:58:15.313Z,99.90
2023-04-24T17:00:44.780Z,99.90
2023-04-24T17:03:15.467Z,99.30
2023-04-24T17:05:45.329Z,99.20
2023-04-24T17:08:14.664Z,99.30
2023-04-24T17:10:43.759Z,98.10
2023-04-24T17:13:14.779Z,98.20
2023-04-24T17:15:44.011Z,99.40
2023-04-24T17:18:14.577Z,97.50
2023-04-24T17:20:44.060Z,98.70
2023-04-24T17:23:13.851Z,99.40
2023-04-24T17:25:42.991Z,99.40
2023-04-24T17:28:24.375Z,99.90
2023-04-24T17:30:55.536Z,99.90
2023-04-24T17:33:26.134Z,99.90
2023-04-24T17:35:56.015Z,99.90
2023-04-24T17:38:25.208Z,99.90
2023-04-24T17:40:54.004Z,99.90
2023-04-24T17:43:23.546Z,99.90
2023-04-24T17:45:55.638Z,99.90
2023-04-24T17:48:26.899Z,99.90
2023-04-24T17:50:56.353Z,99.90
2023-04-24T17:53:25.570Z,99.90
2023-04-24T17:55:57.788Z,99.90
2023-04-24T17:58:26.940Z,99.90
2023-04-24T18:00:55.938Z,99.90
2023-04-24T18:03:26.722Z,99.90
2023-04-24T18:05:56.136Z,99.90
2023-04-24T18:08:25.527Z,99.90
2023-04-24T18:10:54.636Z,99.90
2023-04-24T18:13:23.557Z,99.90
2023-04-24T18:15:52.570Z,99.90
2023-04-24T18:18:21.548Z,99.90
2023-04-24T18:20:51.936Z,99.90
2023-04-24T18:23:21.019Z,99.90
2023-04-24T18:25:49.955Z,99.90
2023-04-24T18:28:18.734Z,99.90
2023-04-24T18:30:48.206Z,99.90
2023-04-24T18:33:17.340Z,99.90
2023-04-24T18:35:46.435Z,99.90
2023-04-24T18:38:16.683Z,99.90
2023-04-24T18:40:45.798Z,99.90
2023-04-24T18:43:14.709Z,99.90
2023-04-24T18:45:43.606Z,99.90
2023-04-24T18:48:12.303Z,99.90
2023-04-24T18:50:41.843Z,99.90
2023-04-24T18:53:14.736Z,99.90
2023-04-24T18:55:45.045Z,99.90
2023-04-24T18:58:14.299Z,99.90
2023-04-24T19:00:43.055Z,99.90
2023-04-24T19:03:12.282Z,99.90
2023-04-24T19:05:41.244Z,99.90
2023-04-24T19:08:10.220Z,99.90
2023-04-24T19:10:39.204Z,99.90
2023-04-24T19:13:09.490Z,99.90
2023-04-24T19:15:40.238Z,99.90
2023-04-24T19:18:09.164Z,99.90
2023-04-24T19:20:38.139Z,99.90
2023-04-24T19:23:06.902Z,99.90
2023-04-24T19:25:35.742Z,99.90
2023-04-24T19:28:04.978Z,99.90
2023-04-24T19:30:35.564Z,99.90
2023-04-24T19:33:04.740Z,99.90
2023-04-24T19:35:34.446Z,99.90
2023-04-24T19:38:03.386Z,99.90
2023-04-24T19:40:32.205Z,99.90
2023-04-24T19:43:01.197Z,99.90
2023-04-24T19:45:30.292Z,99.90
2023-04-24T19:48:00.748Z,99.90
2023-04-24T19:50:29.699Z,99.90
2023-04-24T19:53:00.818Z,99.90
2023-04-24T19:55:30.130Z,99.90
2023-04-24T19:57:59.325Z,99.90
2023-04-24T20:00:28.573Z,99.90
2023-04-24T20:02:57.528Z,99.90
2023-04-24T20:05:28.126Z,99.90
2023-04-24T20:07:57.001Z,99.90
2023-04-24T20:10:26.151Z,99.90
2023-04-24T20:12:55.725Z,99.90
2023-04-24T20:15:24.544Z,99.90
2023-04-24T20:17:53.486Z,99.90
2023-04-24T20:20:22.758Z,99.90
2023-04-24T20:22:53.605Z,99.90
2023-04-24T20:25:22.933Z,99.90
2023-04-24T20:27:52.241Z,99.90
2023-04-24T20:30:21.833Z,99.90
2023-04-24T20:32:50.881Z,99.90
2023-04-24T20:35:19.994Z,99.90
2023-04-24T20:37:48.881Z,99.90
2023-04-24T20:40:19.633Z,99.90
2023-04-24T20:42:49.768Z,99.90
2023-04-24T20:45:19.078Z,99.90
2023-04-24T20:47:50.031Z,99.90
2023-04-24T20:50:20.487Z,99.90
2023-04-24T20:52:49.868Z,99.90
2023-04-24T20:55:21.041Z,99.90
2023-04-24T20:57:49.987Z,99.90
2023-04-24T21:00:19.902Z,99.90
2023-04-24T21:02:48.950Z,99.90
2023-04-24T21:05:18.409Z,99.90
2023-04-24T21:07:47.625Z,99.90
2023-04-24T21:10:17.884Z,99.90
2023-04-24T21:12:48.136Z,99.90
2023-04-24T21:15:17.406Z,99.90
2023-04-24T21:17:46.450Z,99.90
2023-04-24T21:20:15.977Z,99.90
2023-04-24T21:22:45.491Z,99.90
2023-04-24T21:25:15.028Z,99.90
2023-04-24T21:27:44.108Z,99.90
2023-04-24T21:30:14.802Z,99.90
2023-04-24T21:32:44.834Z,99.90
2023-04-24T21:35:13.858Z,99.90
2023-04-24T21:37:43.739Z,99.90
2023-04-24T21:40:16.026Z,99.90
2023-04-24T21:42:45.180Z,99.90
2023-04-24T21:45:16.454Z,99.90
2023-04-24T21:47:45.472Z,99.90
2023-04-24T21:50:14.664Z,99.90
2023-04-24T21:52:43.942Z,99.90
2023-04-24T21:55:12.867Z,99.90
2023-04-24T21:57:41.972Z,99.90
2023-04-24T22:00:13.561Z,99.90
2023-04-24T22:02:44.375Z,99.90
2023-04-24T22:05:15.920Z,99.90
2023-04-24T22:07:47.817Z,99.90
2023-04-24T22:10:20.407Z,99.90
2023-04-24T22:12:49.420Z,99.90
2023-04-24T22:15:18.610Z,99.90
2023-04-24T22:17:49.958Z,99.90
2023-04-24T22:20:19.573Z,99.90
2023-04-24T22:22:50.292Z,99.90
2023-04-24T22:25:20.830Z,99.90
2023-04-24T22:27:51.070Z,99.90
2023-04-24T22:30:20.650Z,99.90
2023-04-24T22:32:52.880Z,99.90
2023-04-24T22:35:22.107Z,99.90
2023-04-24T22:37:56.384Z,99.90
2023-04-24T22:40:26.527Z,99.90
2023-04-24T22:42:56.837Z,99.90
2023-04-24T22:45:26.210Z,99.90
2023-04-24T22:47:56.924Z,99.90
2023-04-24T22:50:26.441Z,99.90
2023-04-24T22:52:56.328Z,99.90
2023-04-24T22:55:25.998Z,99.90
2023-04-24T22:57:57.869Z,99.90
2023-04-24T23:00:27.129Z,99.90
2023-04-24T23:02:57.925Z,99.90
2023-04-24T23:05:28.726Z,99.90
2023-04-24T23:08:02.377Z,99.90
2023-04-24T23:10:32.355Z,99.90
2023-04-24T23:13:01.423Z,99.90
2023-04-24T23:15:30.314Z,99.90
2023-04-24T23:18:01.130Z,99.90
2023-04-24T23:20:30.627Z,99.90
2023-04-24T23:22:59.691Z,99.90
2023-04-24T23:25:28.568Z,99.90
2023-04-24T23:27:57.653Z,99.90
2023-04-24T23:30:27.261Z,99.90
2023-04-24T23:32:57.653Z,99.90
2023-04-24T23:35:28.456Z,99.90
2023-04-24T23:38:01.703Z,99.90
2023-04-24T23:40:31.962Z,99.90
2023-04-24T23:43:07.465Z,99.90
2023-04-24T23:45:38.255Z,99.90
2023-04-24T23:48:07.963Z,99.90
2023-04-24T23:50:38.657Z,99.90
2023-04-24T23:53:08.165Z,99.90
2023-04-24T23:55:38.317Z,99.90
2023-04-24T23:58:07.132Z,99.90
